Time;durP1;ratioP1;P1;durP2;ratioP2;P2;SDS_P1;SDS_P2;PMS_P1;PMS_P2;Temp;Humidity;BMP_temperature;BMP_pressure;BME280_temperature;BME280_humidity;BME280_pressure;Samples;Min_cycle;Max_cycle;Signal;HPM_P1;HPM_P2
2022/08/15 00:00:26;;;;;;;6.33;2.47;;;;;;;;;;5118208;28;20246;-62
2022/08/15 00:02:57;;;;;;;3.23;2.40;;;;;;;;;;5118417;28;20232;-62
2022/08/15 00:05:30;;;;;;;4.13;2.30;;;;;;;;;;5118314;28;20214;-62
2022/08/15 00:08:00;;;;;;;3.67;2.53;;;;;;;;;;5118258;28;20554;-62
2022/08/15 00:10:33;;;;;;;6.20;3.10;;;;;;;;;;5117915;28;20206;-62
2022/08/15 00:13:22;;;;;;;2.03;1.83;;;;;;;;;;5118640;28;20237;-62
2022/08/15 00:15:59;;;;;;;4.80;2.10;;;;;;;;;;5118025;28;20259;-62
2022/08/15 00:18:28;;;;;;;2.37;1.90;;;;;;;;;;5118350;28;20205;-62
2022/08/15 00:20:57;;;;;;;3.70;2.20;;;;;;;;;;5117689;28;20699;-62
2022/08/15 00:23:27;;;;;;;2.23;1.83;;;;;;;;;;5118253;28;20221;-62
2022/08/15 00:25:58;;;;;;;6.87;2.40;;;;;;;;;;5105353;28;20237;-62
2022/08/15 00:28:46;;;;;;;7.13;2.63;;;;;;;;;;5100222;28;20734;-62
2022/08/15 00:31:25;;;;;;;6.47;2.47;;;;;;;;;;5097688;28;20680;-62
2022/08/15 00:34:09;;;;;;;4.23;2.30;;;;;;;;;;5097548;28;20229;-62
2022/08/15 00:36:57;;;;;;;4.73;2.20;;;;;;;;;;5097423;28;20202;-62
2022/08/15 00:39:27;;;;;;;2.63;2.40;;;;;;;;;;5097885;28;20207;-62
2022/08/15 00:42:03;;;;;;;2.50;2.30;;;;;;;;;;5097350;28;20333;-62
2022/08/15 00:44:34;;;;;;;4.37;2.50;;;;;;;;;;5097816;28;20225;-62
2022/08/15 00:47:23;;;;;;;4.17;2.67;;;;;;;;;;5097666;28;20295;-62
2022/08/15 00:50:03;;;;;;;3.20;2.47;;;;;;;;;;5097103;28;20237;-61
2022/08/15 00:52:32;;;;;;;5.27;3.03;;;;;;;;;;5097706;28;20207;-61
2022/08/15 00:55:10;;;;;;;3.33;2.50;;;;;;;;;;5117741;28;20705;-61
2022/08/15 00:57:43;;;;;;;2.77;2.50;;;;;;;;;;5118025;28;20210;-61
2022/08/15 01:00:31;;;;;;;3.20;2.50;;;;;;;;;;5117601;28;20229;-62
2022/08/15 01:03:02;;;;;;;3.90;2.80;;;;;;;;;;5117624;28;20270;-61
2022/08/15 01:05:30;;;;;;;4.40;2.87;;;;;;;;;;5117485;28;20197;-61
2022/08/15 01:08:00;;;;;;;4.37;2.80;;;;;;;;;;5107404;28;20713;-61
2022/08/15 01:10:33;;;;;;;3.77;2.87;;;;;;;;;;5115521;28;20281;-61
2022/08/15 01:13:04;;;;;;;3.00;2.40;;;;;;;;;;5116552;28;20199;-61
2022/08/15 01:15:45;;;;;;;4.83;2.70;;;;;;;;;;5112529;28;20233;-61
2022/08/15 01:18:17;;;;;;;3.67;2.63;;;;;;;;;;5114015;28;20199;-61
2022/08/15 01:21:05;;;;;;;3.73;2.50;;;;;;;;;;5113335;28;20700;-61
2022/08/15 01:23:38;;;;;;;6.40;2.77;;;;;;;;;;5117938;28;20232;-61
2022/08/15 01:26:24;;;;;;;4.03;2.30;;;;;;;;;;5116409;28;20243;-61
2022/08/15 01:29:10;;;;;;;3.60;2.37;;;;;;;;;;5118925;28;20203;-59
2022/08/15 01:31:38;;;;;;;7.07;2.67;;;;;;;;;;5117599;28;20226;-61
2022/08/15 01:34:16;;;;;;;2.70;2.37;;;;;;;;;;5119845;28;20308;-59
2022/08/15 01:36:46;;;;;;;5.33;2.63;;;;;;;;;;5119198;28;20207;-59
2022/08/15 01:39:17;;;;;;;2.73;2.40;;;;;;;;;;5118560;28;20261;-61
2022/08/15 01:41:52;;;;;;;2.57;2.30;;;;;;;;;;5113246;28;20232;-61
2022/08/15 01:44:25;;;;;;;2.63;2.20;;;;;;;;;;5100148;28;20233;-61
2022/08/15 01:47:08;;;;;;;5.03;2.63;;;;;;;;;;5100408;28;20206;-61
2022/08/15 01:49:42;;;;;;;2.50;2.30;;;;;;;;;;5100001;28;20339;-62
2022/08/15 01:52:11;;;;;;;2.57;2.37;;;;;;;;;;5100508;28;20208;-61
2022/08/15 01:55:02;;;;;;;5.03;2.63;;;;;;;;;;5099837;28;20233;-61
2022/08/15 01:57:34;;;;;;;4.03;3.03;;;;;;;;;;5100310;28;20233;-61
2022/08/15 02:00:02;;;;;;;6.30;3.07;;;;;;;;;;5100366;28;20215;-61
2022/08/15 02:02:45;;;;;;;3.93;3.07;;;;;;;;;;5099932;28;20230;-61
2022/08/15 02:05:14;;;;;;;3.23;2.93;;;;;;;;;;5099965;28;20217;-61
2022/08/15 02:07:42;;;;;;;4.03;3.10;;;;;;;;;;5100289;28;20204;-61
2022/08/15 02:10:30;;;;;;;3.03;2.80;;;;;;;;;;5099740;28;20202;-61
2022/08/15 02:13:01;;;;;;;4.53;3.10;;;;;;;;;;5099743;28;20201;-61
2022/08/15 02:15:42;;;;;;;3.87;2.93;;;;;;;;;;5099633;28;20206;-61
2022/08/15 02:18:11;;;;;;;4.33;2.80;;;;;;;;;;5099764;28;20322;-61
2022/08/15 02:20:47;;;;;;;3.83;3.10;;;;;;;;;;5117655;28;20211;-61
2022/08/15 02:23:18;;;;;;;6.93;3.17;;;;;;;;;;5119910;28;20228;-61
2022/08/15 02:25:47;;;;;;;3.90;2.97;;;;;;;;;;5100438;28;20204;-61
2022/08/15 02:28:17;;;;;;;4.63;2.93;;;;;;;;;;5113514;28;20252;-61
2022/08/15 02:31:02;;;;;;;8.57;3.37;;;;;;;;;;5119906;28;20575;-61
2022/08/15 02:33:30;;;;;;;3.63;3.13;;;;;;;;;;5119478;28;20250;-61
2022/08/15 02:36:03;;;;;;;4.17;2.97;;;;;;;;;;5119583;28;20243;-61
2022/08/15 02:38:31;;;;;;;6.30;3.27;;;;;;;;;;5119772;28;20228;-61
2022/08/15 02:41:14;;;;;;;4.30;3.10;;;;;;;;;;5119556;28;20685;-61
2022/08/15 02:43:45;;;;;;;3.87;3.17;;;;;;;;;;5119806;28;20232;-61
2022/08/15 02:46:16;;;;;;;4.50;3.57;;;;;;;;;;5119651;28;20207;-61
2022/08/15 02:48:58;;;;;;;7.00;3.60;;;;;;;;;;5119825;28;20205;-61
2022/08/15 02:51:27;;;;;;;7.83;3.57;;;;;;;;;;5119103;28;20256;-61
2022/08/15 02:54:14;;;;;;;3.47;2.87;;;;;;;;;;5119371;28;20251;-59
2022/08/15 02:57:02;;;;;;;3.17;2.87;;;;;;;;;;5119354;28;20205;-59
2022/08/15 02:59:31;;;;;;;3.30;2.93;;;;;;;;;;5119556;28;20247;-61
2022/08/15 03:02:03;;;;;;;4.97;3.30;;;;;;;;;;5119517;27;20228;-61
2022/08/15 03:04:51;;;;;;;6.00;3.70;;;;;;;;;;5118923;28;20244;-61
2022/08/15 03:07:20;;;;;;;4.40;3.37;;;;;;;;;;5119161;28;20693;-61
2022/08/15 03:09:49;;;;;;;12.83;8.27;;;;;;;;;;5119204;28;20740;-61
2022/08/15 03:12:25;;;;;;;3.47;3.00;;;;;;;;;;5119223;28;20203;-61
2022/08/15 03:15:00;;;;;;;5.40;3.53;;;;;;;;;;5118963;28;20269;-61
2022/08/15 03:17:29;;;;;;;7.10;3.17;;;;;;;;;;5119122;28;20286;-61
2022/08/15 03:20:02;;;;;;;5.13;3.57;;;;;;;;;;5119012;28;20214;-61
2022/08/15 03:22:39;;;;;;;4.63;3.20;;;;;;;;;;5118853;28;20710;-61
2022/08/15 03:25:13;;;;;;;3.50;3.20;;;;;;;;;;5113535;28;20274;-61
2022/08/15 03:27:41;;;;;;;6.77;3.23;;;;;;;;;;5110788;28;20253;-61
2022/08/15 03:30:12;;;;;;;5.03;3.50;;;;;;;;;;5098328;28;20569;-61
2022/08/15 03:32:47;;;;;;;6.80;3.23;;;;;;;;;;5098350;28;20558;-61
2022/08/15 03:35:20;;;;;;;5.80;3.53;;;;;;;;;;5098277;28;20213;-61
2022/08/15 03:37:50;;;;;;;6.53;3.33;;;;;;;;;;5098650;28;20303;-61
2022/08/15 03:40:27;;;;;;;4.57;3.33;;;;;;;;;;5098102;28;20210;-58
2022/08/15 03:42:58;;;;;;;7.13;3.23;;;;;;;;;;5098492;28;20251;-59
2022/08/15 03:45:40;;;;;;;4.50;3.70;;;;;;;;;;5097501;28;20259;-61
2022/08/15 03:48:09;;;;;;;7.60;3.93;;;;;;;;;;5098094;28;20312;-58
2022/08/15 03:50:49;;;;;;;4.27;3.30;;;;;;;;;;5097875;28;20237;-61
2022/08/15 03:53:25;;;;;;;7.80;3.87;;;;;;;;;;5097966;28;20308;-61
2022/08/15 03:55:56;;;;;;;4.67;3.30;;;;;;;;;;5097871;28;20238;-62
2022/08/15 03:58:26;;;;;;;4.13;3.73;;;;;;;;;;5098338;28;20265;-61
2022/08/15 04:01:05;;;;;;;3.67;3.37;;;;;;;;;;5098172;28;20258;-61
2022/08/15 04:03:34;;;;;;;4.43;3.87;;;;;;;;;;5097853;28;20238;-61
2022/08/15 04:06:07;;;;;;;8.93;4.10;;;;;;;;;;5097853;28;20212;-61
2022/08/15 04:08:44;;;;;;;5.07;4.57;;;;;;;;;;5097926;28;20206;-61
2022/08/15 04:11:31;;;;;;;3.87;3.30;;;;;;;;;;5097903;28;20205;-61
2022/08/15 04:14:06;;;;;;;7.50;3.73;;;;;;;;;;5097736;28;20571;-61
2022/08/15 04:16:56;;;;;;;5.63;3.37;;;;;;;;;;5097485;28;20569;-61
2022/08/15 04:19:33;;;;;;;4.27;3.87;;;;;;;;;;5112536;28;20204;-61
2022/08/15 04:22:15;;;;;;;6.23;4.57;;;;;;;;;;5113776;28;20222;-61
2022/08/15 04:25:04;;;;;;;6.67;3.30;;;;;;;;;;5104734;28;20259;-61
2022/08/15 04:27:37;;;;;;;4.10;3.70;;;;;;;;;;5106326;28;20202;-61
2022/08/15 04:30:09;;;;;;;4.50;3.43;;;;;;;;;;5117965;28;20203;-62
2022/08/15 04:32:40;;;;;;;4.87;3.67;;;;;;;;;;5105451;28;20204;-61
2022/08/15 04:35:28;;;;;;;6.40;3.70;;;;;;;;;;5117546;28;20207;-61
2022/08/15 04:37:57;;;;;;;5.50;3.33;;;;;;;;;;5117812;28;20255;-61
2022/08/15 04:40:25;;;;;;;8.63;3.80;;;;;;;;;;5118176;28;20231;-61
2022/08/15 04:43:13;;;;;;;5.50;3.90;;;;;;;;;;5117754;28;20239;-61
2022/08/15 04:45:43;;;;;;;7.63;4.40;;;;;;;;;;5118022;28;20238;-61
2022/08/15 04:48:14;;;;;;;5.33;4.20;;;;;;;;;;5117900;28;20239;-61
2022/08/15 04:50:48;;;;;;;4.10;3.50;;;;;;;;;;5117266;28;20284;-61
2022/08/15 04:53:17;;;;;;;5.50;3.40;;;;;;;;;;5117550;28;20224;-62
2022/08/15 04:55:52;;;;;;;4.53;3.87;;;;;;;;;;5117812;28;20290;-61
2022/08/15 04:58:27;;;;;;;4.07;3.67;;;;;;;;;;5121574;28;20214;-62
2022/08/15 05:01:15;;;;;;;6.83;3.40;;;;;;;;;;5120963;28;20211;-61
2022/08/15 05:03:46;;;;;;;6.23;3.73;;;;;;;;;;5119859;28;20222;-61
2022/08/15 05:06:24;;;;;;;4.37;3.50;;;;;;;;;;5119711;28;20295;-61
2022/08/15 05:08:58;;;;;;;3.80;3.33;;;;;;;;;;5119576;28;20202;-61
2022/08/15 05:11:26;;;;;;;4.20;3.80;;;;;;;;;;5119727;28;20229;-61
2022/08/15 05:14:14;;;;;;;3.70;3.40;;;;;;;;;;5119696;28;20230;-61
2022/08/15 05:17:02;;;;;;;6.67;3.87;;;;;;;;;;5120434;28;20212;-61
2022/08/15 05:19:32;;;;;;;4.80;3.90;;;;;;;;;;5121630;28;20267;-64
2022/08/15 05:22:04;;;;;;;7.30;4.50;;;;;;;;;;5121253;28;20710;-63
2022/08/15 05:24:32;;;;;;;4.93;3.43;;;;;;;;;;5112285;28;20243;-61
2022/08/15 05:27:00;;;;;;;4.83;3.83;;;;;;;;;;5104158;28;20230;-61
2022/08/15 05:29:30;;;;;;;9.60;4.30;;;;;;;;;;5121295;28;20268;-60
2022/08/15 05:31:58;;;;;;;5.83;4.40;;;;;;;;;;5120972;28;20693;-61
2022/08/15 05:34:27;;;;;;;6.80;4.53;;;;;;;;;;5120908;28;20256;-61
2022/08/15 05:37:12;;;;;;;4.60;4.20;;;;;;;;;;5121022;28;20572;-61
2022/08/15 05:39:43;;;;;;;4.60;4.00;;;;;;;;;;5120855;27;20235;-61
2022/08/15 05:42:17;;;;;;;5.73;4.20;;;;;;;;;;5120990;28;20244;-62
2022/08/15 05:45:01;;;;;;;5.63;3.93;;;;;;;;;;5120671;28;20281;-64
2022/08/15 05:47:33;;;;;;;5.90;4.30;;;;;;;;;;5121122;28;20248;-64
2022/08/15 05:50:06;;;;;;;6.17;4.10;;;;;;;;;;5120272;28;20265;-65
2022/08/15 05:52:45;;;;;;;6.83;4.20;;;;;;;;;;5120850;28;20217;-64
2022/08/15 05:55:18;;;;;;;5.47;4.17;;;;;;;;;;5120659;28;20627;-64
2022/08/15 05:57:54;;;;;;;6.73;4.53;;;;;;;;;;5120540;28;20207;-62
2022/08/15 06:00:25;;;;;;;8.90;4.77;;;;;;;;;;5120576;28;20679;-60
2022/08/15 06:02:58;;;;;;;6.37;4.27;;;;;;;;;;5120518;28;20289;-61
2022/08/15 06:05:28;;;;;;;4.97;4.37;;;;;;;;;;5120181;28;20212;-61
2022/08/15 06:08:08;;;;;;;4.43;4.00;;;;;;;;;;5119691;28;20577;-61
2022/08/15 06:11:08;;;;;;;5.80;4.00;;;;;;;;;;5120146;28;20215;-61
2022/08/15 06:13:39;;;;;;;4.50;4.10;;;;;;;;;;5120071;28;20638;-61
2022/08/15 06:16:16;;;;;;;5.00;4.60;;;;;;;;;;5119702;28;20232;-61
2022/08/15 06:19:06;;;;;;;4.70;3.93;;;;;;;;;;5113706;28;20208;-60
2022/08/15 06:21:39;;;;;;;6.53;4.37;;;;;;;;;;5099864;28;20215;-61
2022/08/15 06:24:10;;;;;;;4.90;4.40;;;;;;;;;;5112287;28;20256;-61
2022/08/15 06:27:00;;;;;;;5.67;4.57;;;;;;;;;;5118164;28;20239;-60
2022/08/15 06:29:53;;;;;;;6.93;4.00;;;;;;;;;;5098678;28;20615;-61
2022/08/15 06:32:23;;;;;;;5.03;4.37;;;;;;;;;;5108829;28;20232;-61
2022/08/15 06:34:59;;;;;;;5.83;4.40;;;;;;;;;;5115826;28;20225;-60
2022/08/15 06:37:32;;;;;;;5.70;4.50;;;;;;;;;;5112933;28;20197;-60
2022/08/15 06:40:09;;;;;;;5.17;4.63;;;;;;;;;;5119632;28;20208;-60
2022/08/15 06:42:55;;;;;;;6.40;4.90;;;;;;;;;;5119686;28;20263;-61
2022/08/15 06:45:28;;;;;;;5.50;4.37;;;;;;;;;;5119375;28;20269;-61
2022/08/15 06:48:04;;;;;;;5.47;4.97;;;;;;;;;;5119319;28;20698;-60
2022/08/15 06:50:53;;;;;;;6.37;4.70;;;;;;;;;;5115192;28;20230;-61
2022/08/15 06:53:23;;;;;;;7.53;4.63;;;;;;;;;;5119511;28;20224;-60
2022/08/15 06:55:56;;;;;;;5.10;4.60;;;;;;;;;;5117303;28;20200;-60
2022/08/15 06:58:31;;;;;;;5.77;5.17;;;;;;;;;;5119408;28;20207;-60
2022/08/15 07:01:27;;;;;;;7.33;4.87;;;;;;;;;;5113676;28;21402;-61
2022/08/15 07:04:19;;;;;;;5.07;4.40;;;;;;;;;;5116919;28;20258;-61
2022/08/15 07:06:51;;;;;;;7.13;4.33;;;;;;;;;;5108050;28;20208;-60
2022/08/15 07:09:26;;;;;;;6.07;5.07;;;;;;;;;;5117174;28;20212;-60
2022/08/15 07:12:02;;;;;;;5.27;4.77;;;;;;;;;;5116884;28;20294;-60
2022/08/15 07:14:35;;;;;;;6.73;5.10;;;;;;;;;;5117028;28;20272;-61
2022/08/15 07:17:06;;;;;;;5.70;4.77;;;;;;;;;;5117016;28;20240;-61
2022/08/15 07:19:37;;;;;;;5.43;4.40;;;;;;;;;;5110815;28;20216;-60
2022/08/15 07:22:06;;;;;;;7.03;4.60;;;;;;;;;;5118513;28;20250;-60
2022/08/15 07:24:35;;;;;;;6.43;4.83;;;;;;;;;;5118379;28;20229;-60
2022/08/15 07:27:12;;;;;;;9.40;5.33;;;;;;;;;;5116071;28;20209;-60
2022/08/15 07:29:44;;;;;;;5.30;4.77;;;;;;;;;;5098602;28;20210;-60
2022/08/15 07:32:25;;;;;;;6.33;4.43;;;;;;;;;;5112237;28;20203;-60
2022/08/15 07:35:02;;;;;;;6.93;4.87;;;;;;;;;;5107400;28;20227;-60
2022/08/15 07:37:41;;;;;;;5.67;4.47;;;;;;;;;;5118613;28;20254;-60
2022/08/15 07:40:23;;;;;;;5.10;4.60;;;;;;;;;;5118706;28;20234;-60
2022/08/15 07:43:00;;;;;;;8.67;4.67;;;;;;;;;;5118432;28;20567;-60
2022/08/15 07:45:32;;;;;;;5.53;4.53;;;;;;;;;;5118394;28;20592;-60
2022/08/15 07:48:05;;;;;;;5.50;4.50;;;;;;;;;;5106203;28;20205;-60
2022/08/15 07:50:50;;;;;;;4.53;3.77;;;;;;;;;;5118272;28;20233;-60
2022/08/15 07:53:21;;;;;;;4.47;3.70;;;;;;;;;;5112557;28;20260;-60
2022/08/15 07:56:07;;;;;;;4.77;3.80;;;;;;;;;;5107194;28;20207;-60
2022/08/15 07:59:10;;;;;;;3.77;3.40;;;;;;;;;;5106557;28;20230;-59
2022/08/15 08:01:38;;;;;;;5.63;4.20;;;;;;;;;;5118441;28;20203;-60
2022/08/15 08:04:10;;;;;;;4.37;3.97;;;;;;;;;;5117642;28;20765;-60
2022/08/15 08:06:54;;;;;;;5.43;4.17;;;;;;;;;;5118432;28;20238;-60
2022/08/15 08:09:26;;;;;;;5.47;4.57;;;;;;;;;;5109437;28;20215;-58
2022/08/15 08:12:07;;;;;;;8.80;7.13;;;;;;;;;;5107674;28;20204;-58
2022/08/15 08:14:41;;;;;;;5.77;4.23;;;;;;;;;;5104596;28;20223;-58
2022/08/15 08:17:14;;;;;;;4.97;3.40;;;;;;;;;;5118200;28;20208;-58
2022/08/15 08:19:51;;;;;;;4.67;3.53;;;;;;;;;;5118115;28;20209;-58
2022/08/15 08:22:26;;;;;;;3.50;3.20;;;;;;;;;;5118072;28;20644;-59
2022/08/15 08:25:01;;;;;;;5.67;3.93;;;;;;;;;;5105816;28;20279;-59
2022/08/15 08:27:44;;;;;;;4.43;3.57;;;;;;;;;;5110064;28;20237;-59
2022/08/15 08:30:23;;;;;;;7.37;3.73;;;;;;;;;;5097610;28;20274;-59
2022/08/15 08:33:17;;;;;;;3.87;3.53;;;;;;;;;;5101767;28;20246;-59
2022/08/15 08:35:49;;;;;;;6.00;3.60;;;;;;;;;;5101682;28;20202;-59
2022/08/15 08:38:23;;;;;;;4.63;2.93;;;;;;;;;;5101900;28;20207;-59
2022/08/15 08:41:29;;;;;;;3.93;3.60;;;;;;;;;;5101388;28;20675;-59
2022/08/15 08:44:01;;;;;;;4.17;3.80;;;;;;;;;;5118704;28;20229;-59
2022/08/15 08:46:58;;;;;;;3.77;3.37;;;;;;;;;;5121856;28;20217;-58
2022/08/15 08:49:36;;;;;;;4.43;3.73;;;;;;;;;;5117504;28;20290;-59
2022/08/15 08:52:28;;;;;;;3.70;3.40;;;;;;;;;;5121790;28;20206;-58
2022/08/15 08:55:00;;;;;;;3.50;3.20;;;;;;;;;;5121868;28;20310;-58
2022/08/15 08:57:32;;;;;;;6.67;4.00;;;;;;;;;;5121473;28;20614;-58
2022/08/15 09:00:02;;;;;;;4.03;3.43;;;;;;;;;;5119664;28;20237;-58
2022/08/15 09:02:36;;;;;;;6.37;4.00;;;;;;;;;;5121604;28;20679;-58
2022/08/15 09:05:23;;;;;;;4.00;3.60;;;;;;;;;;5121517;28;20260;-58
2022/08/15 09:07:53;;;;;;;4.80;3.80;;;;;;;;;;5121534;28;20205;-58
2022/08/15 09:10:24;;;;;;;4.27;3.43;;;;;;;;;;5108387;27;20205;-58
2022/08/15 09:15:45;;;;;;;3.80;3.37;;;;;;;;;;5101069;28;20201;-58
2022/08/15 09:18:26;;;;;;;5.33;3.53;;;;;;;;;;5101028;28;20201;-57
2022/08/15 09:20:56;;;;;;;5.57;3.00;;;;;;;;;;5119895;28;20231;-57
2022/08/15 09:23:25;;;;;;;4.47;3.27;;;;;;;;;;5121450;28;20259;-59
2022/08/15 09:26:03;;;;;;;3.37;3.10;;;;;;;;;;5108219;28;20259;-60
2022/08/15 09:28:33;;;;;;;3.57;2.83;;;;;;;;;;5105961;28;20205;-57
2022/08/15 09:31:05;;;;;;;2.43;2.20;;;;;;;;;;5100605;28;20572;-57
2022/08/15 09:33:52;;;;;;;4.53;2.20;;;;;;;;;;5100761;28;20329;-58
2022/08/15 09:36:31;;;;;;;2.73;2.50;;;;;;;;;;5100498;28;20576;-60
2022/08/15 09:39:08;;;;;;;3.40;2.83;;;;;;;;;;5100526;28;20642;-58
2022/08/15 09:41:42;;;;;;;3.37;2.87;;;;;;;;;;5100439;28;20239;-59
2022/08/15 09:44:40;;;;;;;4.43;2.90;;;;;;;;;;5099447;28;20665;-60
2022/08/15 09:47:19;;;;;;;2.87;2.67;;;;;;;;;;5103132;28;20234;-60
2022/08/15 09:50:07;;;;;;;4.00;2.50;;;;;;;;;;5120532;28;20326;-57
2022/08/15 09:53:02;;;;;;;6.60;2.60;;;;;;;;;;5120446;28;20313;-59
2022/08/15 09:55:35;;;;;;;5.63;2.73;;;;;;;;;;5120971;28;20281;-58
2022/08/15 09:58:12;;;;;;;2.47;2.33;;;;;;;;;;5121000;28;20219;-57
2022/08/15 10:00:53;;;;;;;2.97;2.50;;;;;;;;;;5120517;28;20547;-59
2022/08/15 10:03:22;;;;;;;6.57;2.73;;;;;;;;;;5120794;28;20230;-59
2022/08/15 10:06:04;;;;;;;3.60;2.73;;;;;;;;;;5120408;28;20286;-60
2022/08/15 10:09:10;;;;;;;2.77;2.57;;;;;;;;;;5120746;28;20213;-59
2022/08/15 10:11:56;;;;;;;3.23;2.50;;;;;;;;;;5120453;28;20213;-60
2022/08/15 10:14:29;;;;;;;3.20;2.90;;;;;;;;;;5120423;28;20228;-59
2022/08/15 10:16:59;;;;;;;4.17;2.60;;;;;;;;;;5120503;28;20329;-59
2022/08/15 10:19:35;;;;;;;4.83;2.37;;;;;;;;;;5106812;28;20209;-60
2022/08/15 10:22:42;;;;;;;4.77;3.53;;;;;;;;;;5120046;28;20291;-59
2022/08/15 10:25:15;;;;;;;4.57;2.80;;;;;;;;;;5114362;28;20707;-59
2022/08/15 10:27:58;;;;;;;3.63;2.87;;;;;;;;;;5111168;28;20210;-59
2022/08/15 10:30:54;;;;;;;3.47;2.63;;;;;;;;;;5099723;28;20205;-60
2022/08/15 10:33:27;;;;;;;4.47;3.67;;;;;;;;;;5107792;28;20230;-59
2022/08/15 10:36:05;;;;;;;3.27;2.50;;;;;;;;;;5119612;27;20200;-60
2022/08/15 10:38:56;;;;;;;3.10;2.80;;;;;;;;;;5114359;28;20287;-59
2022/08/15 10:41:30;;;;;;;5.60;3.20;;;;;;;;;;5115226;28;20215;-59
2022/08/15 10:44:04;;;;;;;8.80;5.27;;;;;;;;;;5119403;28;20231;-59
2022/08/15 10:46:58;;;;;;;5.80;3.40;;;;;;;;;;5118874;28;20296;-62
2022/08/15 10:49:32;;;;;;;4.33;2.87;;;;;;;;;;5117365;28;20223;-59
2022/08/15 10:52:20;;;;;;;3.17;2.80;;;;;;;;;;5118845;28;20221;-59
2022/08/15 10:55:05;;;;;;;4.03;2.47;;;;;;;;;;5118944;28;20671;-59
2022/08/15 10:57:48;;;;;;;2.73;2.53;;;;;;;;;;5117494;28;20216;-59
2022/08/15 11:00:37;;;;;;;4.77;2.73;;;;;;;;;;5117216;28;20205;-59
2022/08/15 11:03:20;;;;;;;4.40;2.50;;;;;;;;;;5115915;28;20215;-59
2022/08/15 11:05:55;;;;;;;2.67;2.43;;;;;;;;;;5115497;28;20250;-59
2022/08/15 11:08:23;;;;;;;2.80;2.60;;;;;;;;;;5115966;28;20613;-59
2022/08/15 11:11:04;;;;;;;3.00;2.63;;;;;;;;;;5113613;28;20258;-59
2022/08/15 11:13:33;;;;;;;2.90;2.20;;;;;;;;;;5117000;28;20262;-59
2022/08/15 11:16:11;;;;;;;4.90;2.40;;;;;;;;;;5115622;28;20205;-59
2022/08/15 11:19:00;;;;;;;4.77;2.40;;;;;;;;;;5116994;27;20205;-59
2022/08/15 11:21:36;;;;;;;2.73;2.53;;;;;;;;;;5117353;28;20229;-59
2022/08/15 11:24:10;;;;;;;3.13;2.47;;;;;;;;;;5110733;28;20725;-59
2022/08/15 11:26:39;;;;;;;4.20;2.50;;;;;;;;;;5098758;28;20222;-59
2022/08/15 11:29:08;;;;;;;3.30;3.00;;;;;;;;;;5119001;28;20197;-59
2022/08/15 11:31:47;;;;;;;2.90;2.70;;;;;;;;;;5104591;28;20210;-59
2022/08/15 11:34:26;;;;;;;3.43;2.60;;;;;;;;;;5098304;28;20228;-59
2022/08/15 11:37:12;;;;;;;3.00;2.80;;;;;;;;;;5098588;28;20272;-59
2022/08/15 11:39:47;;;;;;;2.73;2.53;;;;;;;;;;5098220;28;20210;-59
2022/08/15 11:42:17;;;;;;;4.60;2.83;;;;;;;;;;5098410;28;20204;-59
2022/08/15 11:44:47;;;;;;;3.00;2.70;;;;;;;;;;5098125;28;20244;-59
2022/08/15 11:47:18;;;;;;;4.30;2.90;;;;;;;;;;5098075;28;20263;-59
2022/08/15 11:49:48;;;;;;;4.43;3.20;;;;;;;;;;5097742;28;20265;-59
2022/08/15 11:52:23;;;;;;;3.70;2.80;;;;;;;;;;5098460;28;20262;-59
2022/08/15 11:55:13;;;;;;;11.93;3.17;;;;;;;;;;5098137;28;20255;-59
2022/08/15 11:57:51;;;;;;;4.07;2.90;;;;;;;;;;5098202;28;20202;-59
2022/08/15 12:00:24;;;;;;;4.53;2.70;;;;;;;;;;5098254;28;20253;-59
2022/08/15 12:02:57;;;;;;;3.73;2.70;;;;;;;;;;5097944;28;20202;-59
2022/08/15 12:05:45;;;;;;;3.67;2.57;;;;;;;;;;5096914;28;20235;-59
2022/08/15 12:08:33;;;;;;;3.97;2.90;;;;;;;;;;5097645;28;20288;-59
2022/08/15 12:11:03;;;;;;;3.37;2.87;;;;;;;;;;5097817;28;20226;-59
2022/08/15 12:13:55;;;;;;;3.17;2.87;;;;;;;;;;5098247;28;20232;-59
2022/08/15 12:16:26;;;;;;;3.70;2.90;;;;;;;;;;5097992;28;20216;-59
2022/08/15 12:19:00;;;;;;;3.73;3.43;;;;;;;;;;5113782;28;20212;-59
2022/08/15 12:21:33;;;;;;;5.83;3.00;;;;;;;;;;5117882;28;20628;-59
2022/08/15 12:24:07;;;;;;;4.90;2.80;;;;;;;;;;5112649;28;20228;-59
2022/08/15 12:26:35;;;;;;;4.07;3.40;;;;;;;;;;5097882;28;20228;-60
2022/08/15 12:29:14;;;;;;;3.53;3.23;;;;;;;;;;5105572;28;20295;-59
2022/08/15 12:31:45;;;;;;;3.10;2.90;;;;;;;;;;5118296;28;20289;-59
2022/08/15 12:34:17;;;;;;;3.50;2.70;;;;;;;;;;5117713;28;20256;-60
2022/08/15 12:36:56;;;;;;;5.00;3.37;;;;;;;;;;5118202;28;20282;-60
2022/08/15 12:39:35;;;;;;;3.73;3.27;;;;;;;;;;5118218;28;20212;-60
2022/08/15 12:42:08;;;;;;;3.17;2.83;;;;;;;;;;5117834;28;20276;-60
2022/08/15 12:44:56;;;;;;;3.10;2.80;;;;;;;;;;5117747;28;20314;-59
2022/08/15 12:47:26;;;;;;;3.47;2.63;;;;;;;;;;5111957;28;20262;-59
2022/08/15 12:50:00;;;;;;;3.00;2.70;;;;;;;;;;5103647;28;20234;-59
2022/08/15 12:52:28;;;;;;;4.40;2.87;;;;;;;;;;5108395;28;20200;-59
2022/08/15 12:54:57;;;;;;;2.77;2.50;;;;;;;;;;5104840;28;20226;-59
2022/08/15 12:57:28;;;;;;;3.33;2.23;;;;;;;;;;5103626;28;20204;-59
2022/08/15 13:00:16;;;;;;;3.07;2.43;;;;;;;;;;5106284;28;20699;-59
2022/08/15 13:03:10;;;;;;;3.53;2.47;;;;;;;;;;5113837;28;20237;-59
2022/08/15 13:05:58;;;;;;;2.50;2.30;;;;;;;;;;5104534;28;20200;-59
2022/08/15 13:08:47;;;;;;;3.73;2.80;;;;;;;;;;5100325;28;20212;-60
2022/08/15 13:11:21;;;;;;;5.73;4.60;;;;;;;;;;5110760;28;20286;-59
2022/08/15 13:13:49;;;;;;;6.70;4.83;;;;;;;;;;5100498;28;20295;-60
2022/08/15 13:16:21;;;;;;;3.90;3.20;;;;;;;;;;5100421;28;20205;-60
2022/08/15 13:19:10;;;;;;;3.73;3.30;;;;;;;;;;5114065;28;20224;-60
2022/08/15 13:24:57;;;;;;;3.83;3.00;;;;;;;;;;5109737;28;20215;-60
2022/08/15 13:27:28;;;;;;;4.23;2.80;;;;;;;;;;5114670;28;20224;-60
2022/08/15 13:29:56;;;;;;;4.00;2.70;;;;;;;;;;5112394;28;20223;-60
2022/08/15 13:32:28;;;;;;;3.50;3.13;;;;;;;;;;5109329;28;20225;-60
2022/08/15 13:34:56;;;;;;;3.90;2.97;;;;;;;;;;5119177;28;20533;-60
2022/08/15 13:37:26;;;;;;;5.37;2.70;;;;;;;;;;5115857;27;20572;-60
2022/08/15 13:40:17;;;;;;;5.37;3.33;;;;;;;;;;5116646;27;20221;-60
2022/08/15 13:42:47;;;;;;;5.67;3.00;;;;;;;;;;5108932;28;20636;-60
2022/08/15 13:45:17;;;;;;;2.73;2.53;;;;;;;;;;5118375;27;20239;-59
2022/08/15 13:48:07;;;;;;;3.47;2.67;;;;;;;;;;5115715;28;20347;-60
2022/08/15 13:50:43;;;;;;;3.13;2.87;;;;;;;;;;5103225;28;20283;-60
2022/08/15 13:53:13;;;;;;;5.73;3.17;;;;;;;;;;5117200;27;20227;-60
2022/08/15 13:55:42;;;;;;;3.53;2.90;;;;;;;;;;5105178;28;20216;-59
2022/08/15 13:58:10;;;;;;;5.33;2.87;;;;;;;;;;5114124;28;20731;-59
2022/08/15 14:00:47;;;;;;;4.80;3.07;;;;;;;;;;5113614;28;20212;-59
2022/08/15 14:03:30;;;;;;;2.87;2.67;;;;;;;;;;5109655;28;20226;-59
2022/08/15 14:06:00;;;;;;;2.80;2.60;;;;;;;;;;5120891;27;20208;-59
2022/08/15 14:08:34;;;;;;;3.73;3.00;;;;;;;;;;5110881;28;20253;-59
2022/08/15 14:11:23;;;;;;;4.60;3.00;;;;;;;;;;5110013;28;20689;-59
2022/08/15 14:13:59;;;;;;;3.40;3.20;;;;;;;;;;5119231;28;20228;-60
2022/08/15 14:16:28;;;;;;;2.80;2.60;;;;;;;;;;5109221;27;20686;-60
2022/08/15 14:19:18;;;;;;;2.93;2.30;;;;;;;;;;5115577;28;20199;-60
2022/08/15 14:22:06;;;;;;;4.03;2.73;;;;;;;;;;5105714;28;20233;-60
2022/08/15 14:24:47;;;;;;;3.70;2.87;;;;;;;;;;5110084;28;20230;-60
2022/08/15 14:27:35;;;;;;;3.90;2.60;;;;;;;;;;5111571;28;20224;-60
2022/08/15 14:30:21;;;;;;;3.00;2.70;;;;;;;;;;5111434;28;20209;-60
2022/08/15 14:32:49;;;;;;;2.77;2.57;;;;;;;;;;5113600;28;20254;-60
2022/08/15 14:35:21;;;;;;;2.70;2.50;;;;;;;;;;5113676;28;20240;-60
2022/08/15 14:37:51;;;;;;;3.87;2.57;;;;;;;;;;5119743;28;20207;-60
2022/08/15 14:40:24;;;;;;;3.13;2.83;;;;;;;;;;5118374;28;20209;-60
2022/08/15 14:42:53;;;;;;;2.80;2.55;;;;;;;;;;5105394;28;20207;-60
2022/08/15 14:45:27;;;;;;;3.42;2.83;;;;;;;;;;5099107;28;20211;-60
2022/08/15 14:48:15;;;;;;;2.72;2.50;;;;;;;;;;5100953;28;20721;-60
2022/08/15 14:51:04;;;;;;;4.40;2.50;;;;;;;;;;5100152;28;20239;-60
2022/08/15 14:53:52;;;;;;;2.97;2.58;;;;;;;;;;5099518;28;20731;-60
2022/08/15 14:56:21;;;;;;;3.13;2.30;;;;;;;;;;5102000;28;20250;-60
2022/08/15 14:58:59;;;;;;;4.80;2.40;;;;;;;;;;5119103;28;20208;-59
2022/08/15 15:01:29;;;;;;;2.47;2.28;;;;;;;;;;5118464;28;20268;-60
2022/08/15 15:04:17;;;;;;;4.55;2.50;;;;;;;;;;5106548;28;20231;-60
2022/08/15 15:06:47;;;;;;;2.78;2.47;;;;;;;;;;5109991;28;20209;-60
2022/08/15 15:09:17;;;;;;;3.53;2.47;;;;;;;;;;5101031;28;20261;-60
2022/08/15 15:11:47;;;;;;;2.60;2.40;;;;;;;;;;5109009;28;20303;-60
2022/08/15 15:14:20;;;;;;;2.83;2.53;;;;;;;;;;5100767;28;20226;-59
2022/08/15 15:16:52;;;;;;;4.32;3.50;;;;;;;;;;5116723;28;20658;-60
2022/08/15 15:19:25;;;;;;;4.28;3.08;;;;;;;;;;5109857;28;20206;-60
2022/08/15 15:22:07;;;;;;;5.28;2.40;;;;;;;;;;5111573;28;20202;-60
2022/08/15 15:24:37;;;;;;;2.53;2.28;;;;;;;;;;5109465;28;20318;-60
2022/08/15 15:27:08;;;;;;;3.63;2.38;;;;;;;;;;5100847;28;20237;-60
2022/08/15 15:29:45;;;;;;;2.60;2.35;;;;;;;;;;5118359;28;20234;-60
2022/08/15 15:32:17;;;;;;;2.72;2.53;;;;;;;;;;5117419;28;20212;-60
2022/08/15 15:34:59;;;;;;;2.47;2.22;;;;;;;;;;5116889;28;20758;-60
2022/08/15 15:37:28;;;;;;;3.22;2.60;;;;;;;;;;5111881;28;20207;-60
2022/08/15 15:39:56;;;;;;;4.97;2.60;;;;;;;;;;5113324;27;20205;-60
2022/08/15 15:42:26;;;;;;;3.57;2.63;;;;;;;;;;5117520;28;20255;-60
2022/08/15 15:45:00;;;;;;;6.22;2.13;;;;;;;;;;5117130;28;20226;-60